Time;durP1;ratioP1;P1;durP2;ratioP2;P2;SDS_P1;SDS_P2;PMS_P1;PMS_P2;Temp;Humidity;BMP_temperature;BMP_pressure;BME280_temperature;BME280_humidity;BME280_pressure;Samples;Min_cycle;Max_cycle;Signal;HPM_P1;HPM_P2
2022/05/14 00:45:22;;;;;;;7.70;2.13;;;15.30;81.30;;;;;;6100450;23;20009;-91
2022/05/14 00:51:46;;;;;;;;;;;;;;;;;;;;;
2022/05/14 09:31:33;;;;;;;11.55;3.83;;;19.40;87.80;;;;;;6182062;23;20017;-90
2022/05/14 09:41:36;;;;;;;14.05;3.78;;;19.60;85.50;;;;;;6067912;23;20018;-91
2022/05/14 09:44:34;;;;;;;12.88;4.35;;;19.80;85.70;;;;;;6112251;23;20004;-90
2022/05/14 09:47:45;;;;;;;13.73;4.15;;;19.90;86.00;;;;;;6185193;23;20005;-90
2022/05/14 10:00:55;;;;;;;;;;;;;;;;;;;;;
2022/05/14 10:07:24;;;;;;;;;;;;;;;;;;;;;
2022/05/14 10:10:39;;;;;;;10.18;3.88;;;20.50;82.60;;;;;;6097070;23;20006;-94
2022/05/14 10:13:33;;;;;;;15.43;4.88;;;20.50;82.10;;;;;;6070957;23;20053;-83
2022/05/14 10:16:27;;;;;;;10.98;3.80;;;20.60;82.60;;;;;;6094772;23;20042;-84
2022/05/14 10:19:04;;;;;;;12.82;4.07;;;20.70;82.70;;;;;;6138949;23;20450;-83
2022/05/14 10:22:12;;;;;;;15.13;4.47;;;20.70;82.50;;;;;;6189507;23;20000;-83
2022/05/14 10:27:40;;;;;;;12.27;3.78;;;20.80;81.00;;;;;;6216137;23;20055;-91
2022/05/14 10:30:24;;;;;;;11.98;3.63;;;20.90;81.30;;;;;;6191418;23;20008;-91
2022/05/14 10:36:09;;;;;;;10.75;3.50;;;21.10;81.00;;;;;;6187153;23;20024;-88
2022/05/14 10:38:46;;;;;;;8.73;3.60;;;21.20;80.60;;;;;;6216062;23;20050;-89
2022/05/14 10:45:10;;;;;;;13.30;3.83;;;21.30;80.30;;;;;;6144536;23;20009;-88
2022/05/14 10:54:45;;;;;;;10.45;3.30;;;21.50;77.80;;;;;;6068636;23;20079;-88
2022/05/14 10:57:26;;;;;;;10.50;3.38;;;21.70;77.10;;;;;;6166845;23;20008;-87
2022/05/14 11:00:13;;;;;;;;;;;;;;;;;;;;;
2022/05/14 11:06:11;;;;;;;12.45;4.03;;;21.80;74.50;;;;;;6217917;23;20007;-88
2022/05/14 11:08:43;;;;;;;15.05;3.90;;;21.90;74.00;;;;;;6191222;23;20005;-88
2022/05/14 11:12:09;;;;;;;;;;;;;;;;;;;;;
2022/05/14 11:18:09;;;;;;;11.38;3.40;;;22.10;73.40;;;;;;6060267;23;20030;-87
2022/05/14 11:24:06;;;;;;;;;;;;;;;;;;;;;
2022/05/14 11:26:58;;;;;;;18.23;4.00;;;22.30;71.50;;;;;;5951543;23;20011;-88
2022/05/14 11:29:55;;;;;;;13.38;4.22;;;22.30;71.60;;;;;;6160813;23;20427;-88
2022/05/14 11:42:36;;;;;;;14.65;4.00;;;22.40;69.80;;;;;;6187918;23;20067;-86
2022/05/14 11:45:42;;;;;;;11.80;3.60;;;22.50;69.10;;;;;;6156971;23;20092;-90
2022/05/14 11:52:26;;;;;;;12.23;4.07;;;22.60;67.90;;;;;;6187589;23;20007;-88
2022/05/14 12:08:57;;;;;;;15.05;4.15;;;23.00;66.40;;;;;;6181780;23;20012;-87
2022/05/14 12:38:36;;;;;;;;;;;;;;;;;;;;;
2022/05/14 12:41:31;;;;;;;10.25;3.53;;;23.80;64.80;;;;;;5920800;24;20016;-90
2022/05/14 12:44:41;;;;;;;13.40;4.38;;;23.80;64.50;;;;;;6038211;23;20015;-91
2022/05/14 12:47:42;;;;;;;;;;;;;;;;;;;;;
2022/05/14 12:50:41;;;;;;;12.60;3.70;;;23.90;63.70;;;;;;6068709;23;20098;-89
2022/05/14 12:53:30;;;;;;;14.82;3.88;;;24.00;62.60;;;;;;6027665;23;20109;-89
2022/05/14 12:56:23;;;;;;;12.73;3.30;;;24.00;62.40;;;;;;6042950;23;20034;-89
2022/05/14 12:58:59;;;;;;;11.80;3.72;;;24.10;62.30;;;;;;6201444;23;20008;-90
2022/05/14 13:01:34;;;;;;;11.45;3.47;;;24.20;62.70;;;;;;6166667;23;20004;-88
2022/05/14 13:11:06;;;;;;;;;;;;;;;;;;;;;
2022/05/14 13:14:52;;;;;;;;;;;;;;;;;;;;;
2022/05/14 13:17:59;;;;;;;;;;;;;;;;;;;;;
2022/05/14 13:21:11;;;;;;;;;;;;;;;;;;;;;
2022/05/14 13:26:47;;;;;;;9.82;3.55;;;24.60;61.50;;;;;;6216187;23;20410;-88
2022/05/14 13:29:24;;;;;;;11.73;3.90;;;24.70;61.60;;;;;;6190693;23;19996;-87
2022/05/14 13:39:18;;;;;;;13.48;4.07;;;24.90;60.10;;;;;;6181396;23;20016;-89
2022/05/14 13:55:36;;;;;;;9.00;2.80;;;24.90;57.60;;;;;;6101719;23;20100;-84
2022/05/14 13:58:20;;;;;;;13.05;3.30;;;24.90;58.20;;;;;;6130884;23;20005;-83
2022/05/14 14:00:54;;;;;;;14.77;4.05;;;24.90;59.00;;;;;;6131080;23;19998;-85
2022/05/14 14:03:28;;;;;;;11.60;4.07;;;25.00;58.60;;;;;;6130223;23;20013;-84
2022/05/14 14:05:54;;;;;;;10.70;3.60;;;25.10;58.60;;;;;;6130118;23;20016;-84
2022/05/14 14:08:27;;;;;;;17.70;3.75;;;25.10;58.20;;;;;;6082072;23;20088;-84
2022/05/14 14:10:55;;;;;;;13.93;3.55;;;25.20;57.60;;;;;;6136620;23;20002;-83
2022/05/14 14:13:22;;;;;;;11.30;3.70;;;25.20;57.50;;;;;;6138923;23;20017;-83
2022/05/14 14:15:48;;;;;;;14.30;3.92;;;25.30;57.30;;;;;;6112498;23;20001;-84
2022/05/14 14:18:15;;;;;;;10.38;3.67;;;25.30;57.10;;;;;;6139066;23;20002;-83
2022/05/14 14:20:44;;;;;;;11.80;3.45;;;25.30;57.20;;;;;;6143540;23;20417;-84
2022/05/14 14:23:13;;;;;;;10.77;3.40;;;25.30;57.10;;;;;;6142879;23;20002;-84
2022/05/14 14:25:43;;;;;;;10.47;3.67;;;25.40;56.50;;;;;;6145448;23;20010;-84
2022/05/14 14:28:14;;;;;;;10.23;3.40;;;25.40;56.30;;;;;;6121109;23;20252;-85
2022/05/14 14:30:43;;;;;;;14.38;3.95;;;25.40;56.00;;;;;;6120218;23;20036;-84
2022/05/14 14:33:10;;;;;;;10.80;3.33;;;25.50;55.60;;;;;;6120528;23;20005;-83
2022/05/14 14:35:36;;;;;;;10.82;3.25;;;25.50;55.10;;;;;;6145880;23;20029;-86
2022/05/14 14:38:02;;;;;;;10.13;3.30;;;25.50;55.40;;;;;;6134247;23;19998;-87
2022/05/14 14:40:28;;;;;;;9.93;3.03;;;25.50;55.50;;;;;;6132786;23;20418;-86
2022/05/14 14:42:54;;;;;;;12.45;4.22;;;25.50;54.50;;;;;;6134818;23;20009;-86
2022/05/14 14:45:20;;;;;;;11.48;3.55;;;25.50;54.70;;;;;;6109477;23;20005;-87
2022/05/14 14:47:48;;;;;;;17.52;4.10;;;25.50;54.90;;;;;;6133039;23;20008;-87
2022/05/14 14:50:16;;;;;;;12.25;3.67;;;25.40;54.80;;;;;;6132835;23;20080;-88
2022/05/14 14:52:42;;;;;;;9.43;2.90;;;25.50;54.80;;;;;;6132508;23;20036;-87
2022/05/14 14:55:08;;;;;;;15.90;3.80;;;25.50;55.20;;;;;;6115590;23;20014;-87
2022/05/14 14:57:34;;;;;;;13.07;3.88;;;25.60;55.60;;;;;;6133317;23;20378;-87
2022/05/14 15:00:00;;;;;;;11.73;4.20;;;25.60;55.70;;;;;;6137571;23;20013;-88
2022/05/14 15:02:37;;;;;;;9.48;3.17;;;25.70;55.60;;;;;;6139166;23;20005;-88
2022/05/14 15:05:17;;;;;;;12.73;3.65;;;25.70;55.00;;;;;;6162953;23;20005;-88
2022/05/14 15:07:43;;;;;;;;;;;25.70;55.20;;;;;;6158157;23;20016;-88
2022/05/14 15:10:11;;;;;;;9.10;2.80;;;25.70;56.00;;;;;;6132740;23;19995;-86
2022/05/14 15:12:39;;;;;;;9.80;3.50;;;25.70;55.60;;;;;;6158384;23;20005;-86
2022/05/14 15:15:05;;;;;;;11.20;3.58;;;25.70;54.80;;;;;;6133850;23;20014;-86
2022/05/14 15:17:31;;;;;;;13.32;3.58;;;25.70;54.30;;;;;;6158186;23;20001;-86
2022/05/14 15:20:00;;;;;;;10.07;3.75;;;25.60;54.00;;;;;;6135149;23;20060;-86
2022/05/14 15:22:26;;;;;;;11.70;3.60;;;25.60;53.90;;;;;;6107820;23;20020;-85
2022/05/14 15:24:54;;;;;;;12.45;3.88;;;25.50;53.70;;;;;;6159180;23;20006;-85
2022/05/14 15:27:20;;;;;;;9.15;3.35;;;25.50;54.20;;;;;;6108848;23;20009;-85
2022/05/14 15:29:46;;;;;;;10.80;3.20;;;25.60;54.80;;;;;;6156074;23;20009;-85
2022/05/14 15:32:21;;;;;;;14.60;4.10;;;25.60;54.80;;;;;;6132096;23;20069;-85
2022/05/14 15:34:50;;;;;;;11.48;3.95;;;25.60;54.90;;;;;;6156841;23;20333;-85
2022/05/14 15:37:17;;;;;;;10.57;3.70;;;25.70;55.20;;;;;;6158501;23;20005;-87
2022/05/14 15:39:45;;;;;;;12.23;3.42;;;25.70;55.60;;;;;;6133096;23;20029;-85
2022/05/14 15:42:18;;;;;;;15.63;4.03;;;25.80;55.00;;;;;;6157200;23;20001;-86
2022/05/14 15:44:52;;;;;;;14.45;4.00;;;25.80;54.30;;;;;;6157701;23;20294;-87
2022/05/14 15:47:20;;;;;;;14.68;7.70;;;25.80;54.40;;;;;;6157431;23;20009;-86
2022/05/14 15:49:52;;;;;;;23.98;14.32;;;25.80;54.20;;;;;;6157369;23;20009;-86
2022/05/14 15:52:20;;;;;;;24.88;12.27;;;25.70;53.00;;;;;;6160370;23;20006;-86
2022/05/14 15:54:47;;;;;;;16.92;8.02;;;25.70;53.30;;;;;;6163978;23;20072;-85
2022/05/14 15:57:12;;;;;;;16.67;5.85;;;25.70;53.90;;;;;;6164523;23;20421;-86
2022/05/14 15:59:44;;;;;;;54.80;7.25;;;25.80;54.40;;;;;;6115962;23;20001;-86
2022/05/14 16:02:09;;;;;;;16.98;4.40;;;25.80;54.20;;;;;;6138252;23;20032;-85
2022/05/14 16:04:36;;;;;;;11.82;3.78;;;25.90;53.80;;;;;;6139115;23;20436;-86
2022/05/14 16:07:05;;;;;;;11.07;4.10;;;25.90;53.90;;;;;;6163984;23;20013;-86
2022/05/14 16:09:32;;;;;;;10.30;3.50;;;26.00;54.40;;;;;;6162023;23;20065;-88
2022/05/14 16:17:43;;;;;;;14.85;5.30;;;26.20;53.50;;;;;;6169362;23;20104;-87
2022/05/14 16:20:09;;;;;;;20.83;6.10;;;26.30;53.80;;;;;;6141659;23;20005;-88
2022/05/14 16:22:37;;;;;;;21.23;14.38;;;26.30;53.30;;;;;;6163397;23;20439;-87
2022/05/14 16:25:04;;;;;;;22.25;9.73;;;26.30;53.50;;;;;;6162312;23;20092;-88
2022/05/14 16:27:30;;;;;;;50.45;39.42;;;26.40;53.10;;;;;;6139111;23;20009;-87
2022/05/14 16:30:11;;;;;;;41.08;29.90;;;26.40;52.80;;;;;;6138988;23;20099;-88
2022/05/14 16:32:39;;;;;;;43.22;31.38;;;26.50;52.70;;;;;;6118292;23;20013;-87
2022/05/14 16:35:06;;;;;;;27.13;18.33;;;26.50;52.70;;;;;;6161766;23;20001;-88
2022/05/14 16:37:33;;;;;;;17.02;8.55;;;26.60;52.90;;;;;;6161936;23;20011;-87
2022/05/14 16:39:59;;;;;;;16.52;8.10;;;26.60;52.70;;;;;;6161449;23;20021;-87
2022/05/14 16:42:25;;;;;;;14.48;5.65;;;26.60;52.40;;;;;;6136657;23;20012;-87
2022/05/14 16:44:51;;;;;;;14.98;5.40;;;26.60;52.10;;;;;;6187257;23;20001;-87
2022/05/14 16:47:18;;;;;;;16.50;5.18;;;26.60;51.30;;;;;;6161470;23;20009;-86
2022/05/14 16:49:46;;;;;;;15.52;5.57;;;26.60;51.20;;;;;;6161160;23;20084;-87
2022/05/14 16:52:15;;;;;;;19.52;14.70;;;26.50;51.20;;;;;;6137709;23;20017;-87
2022/05/14 16:54:42;;;;;;;21.20;10.18;;;26.40;51.40;;;;;;6136401;23;20025;-86
2022/05/14 16:57:08;;;;;;;15.68;7.95;;;26.30;51.30;;;;;;6160838;23;20009;-87
2022/05/14 16:59:36;;;;;;;17.05;7.03;;;26.30;51.20;;;;;;6111928;23;20012;-86
2022/05/14 17:02:04;;;;;;;15.77;8.23;;;26.20;51.40;;;;;;6137207;23;20005;-87
2022/05/14 17:04:30;;;;;;;15.77;7.13;;;26.10;51.60;;;;;;6137399;23;20016;-87
2022/05/14 17:06:56;;;;;;;14.15;9.90;;;26.10;52.00;;;;;;6136483;23;20017;-87
2022/05/14 17:09:22;;;;;;;21.13;10.65;;;26.00;52.30;;;;;;6137502;23;20009;-88
2022/05/14 17:11:48;;;;;;;14.05;6.85;;;26.00;51.80;;;;;;6137487;23;20009;-87
2022/05/14 17:14:13;;;;;;;12.10;5.90;;;26.00;51.40;;;;;;6161864;23;20009;-88
2022/05/14 17:16:39;;;;;;;24.65;13.88;;;26.00;51.50;;;;;;6137356;23;20005;-87
2022/05/14 17:19:05;;;;;;;16.83;8.15;;;26.00;51.40;;;;;;6137373;23;20087;-87
2022/05/14 17:21:31;;;;;;;12.90;6.13;;;26.00;51.80;;;;;;6138540;23;20096;-87
2022/05/14 17:23:56;;;;;;;11.98;4.00;;;26.00;52.50;;;;;;6162903;23;20087;-87
2022/05/14 17:26:25;;;;;;;12.00;4.05;;;26.00;52.70;;;;;;6137282;23;20016;-87
2022/05/14 17:28:52;;;;;;;10.57;3.72;;;26.00;52.90;;;;;;6138281;23;20005;-87
2022/05/14 17:31:22;;;;;;;13.52;4.15;;;26.00;52.60;;;;;;6138979;23;20036;-88
2022/05/14 17:33:48;;;;;;;13.63;4.80;;;26.00;51.90;;;;;;6139195;23;20009;-87
2022/05/14 17:36:14;;;;;;;13.15;3.88;;;25.90;52.20;;;;;;6163061;23;19997;-86
2022/05/14 17:41:30;;;;;;;14.23;3.95;;;25.90;52.90;;;;;;6188142;23;20081;-86
2022/05/14 17:43:59;;;;;;;14.48;4.57;;;25.80;52.80;;;;;;6161592;23;20015;-86
2022/05/14 17:46:25;;;;;;;15.93;4.18;;;25.80;53.00;;;;;;6162134;23;20009;-85
2022/05/14 17:48:54;;;;;;;12.05;3.63;;;25.70;52.70;;;;;;6160294;23;20375;-85
2022/05/14 17:51:20;;;;;;;14.80;4.32;;;25.60;52.60;;;;;;6159666;23;20009;-85
2022/05/14 17:53:47;;;;;;;14.25;3.78;;;25.60;52.50;;;;;;6159762;23;20032;-84
2022/05/14 17:56:15;;;;;;;11.20;4.20;;;25.50;52.70;;;;;;6166548;23;20088;-86
2022/05/14 17:58:41;;;;;;;12.82;4.63;;;25.50;53.10;;;;;;6147486;23;20011;-85
2022/05/14 18:01:07;;;;;;;14.40;4.50;;;25.50;53.20;;;;;;6127365;23;20009;-85
2022/05/14 18:03:33;;;;;;;11.38;3.38;;;25.40;53.20;;;;;;6177948;23;20008;-85
2022/05/14 18:06:01;;;;;;;12.95;4.47;;;25.40;53.40;;;;;;6177118;23;20009;-85
2022/05/14 18:08:27;;;;;;;13.82;3.92;;;25.30;53.60;;;;;;6136868;23;20502;-86
2022/05/14 18:13:42;;;;;;;16.90;4.63;;;25.20;53.60;;;;;;6187447;23;20020;-86
2022/05/14 18:16:08;;;;;;;17.13;4.70;;;25.10;53.70;;;;;;6138031;23;20005;-85
2022/05/14 18:18:38;;;;;;;12.50;4.35;;;25.10;53.80;;;;;;6140963;23;20005;-85
2022/05/14 18:21:04;;;;;;;12.32;4.40;;;25.10;53.80;;;;;;6162523;23;20005;-85
2022/05/14 18:23:30;;;;;;;13.57;4.47;;;25.00;53.90;;;;;;6162573;23;20017;-86
2022/05/14 18:26:04;;;;;;;26.80;4.55;;;24.90;54.50;;;;;;6161947;23;20001;-85
2022/05/14 18:28:32;;;;;;;15.25;4.88;;;24.90;54.30;;;;;;6161180;23;20039;-85
2022/05/14 18:31:01;;;;;;;13.10;4.05;;;24.90;54.40;;;;;;6136101;23;20009;-85
2022/05/14 18:33:41;;;;;;;12.27;4.57;;;24.80;54.30;;;;;;6140637;23;20013;-85
2022/05/14 18:36:08;;;;;;;14.53;4.97;;;24.80;54.40;;;;;;6165029;23;20032;-85
2022/05/14 18:39:03;;;;;;;15.73;4.60;;;24.70;54.50;;;;;;6115824;23;20264;-85
2022/05/14 18:41:38;;;;;;;14.80;4.63;;;24.70;54.50;;;;;;6140481;23;20009;-85
2022/05/14 18:44:05;;;;;;;13.60;4.22;;;24.60;54.50;;;;;;6163613;23;20001;-85
2022/05/14 18:46:37;;;;;;;13.25;4.32;;;24.50;54.60;;;;;;6162166;23;20005;-86
2022/05/14 18:49:03;;;;;;;13.20;4.20;;;24.50;54.60;;;;;;6136860;23;20425;-85
2022/05/14 18:51:41;;;;;;;12.63;4.43;;;24.50;54.50;;;;;;6136981;23;20013;-86
2022/05/14 18:54:16;;;;;;;15.32;4.70;;;24.40;54.30;;;;;;6160860;23;20009;-86
2022/05/14 18:56:44;;;;;;;11.07;3.92;;;24.30;54.30;;;;;;6136805;23;20024;-86
2022/05/14 18:59:10;;;;;;;14.52;3.80;;;24.30;54.40;;;;;;6161186;23;20001;-86
2022/05/14 19:01:40;;;;;;;16.58;5.03;;;24.30;54.40;;;;;;6187469;23;20413;-86
2022/05/14 19:09:35;;;;;;;16.80;4.95;;;24.10;54.30;;;;;;6188464;23;20071;-86
2022/05/14 19:12:00;;;;;;;13.00;3.90;;;24.10;54.30;;;;;;6137796;23;20009;-86
2022/05/14 19:14:26;;;;;;;14.13;4.60;;;24.00;54.30;;;;;;6138143;23;20012;-86
2022/05/14 19:16:53;;;;;;;13.68;4.50;;;24.00;54.50;;;;;;6162604;23;20009;-86
2022/05/14 19:19:21;;;;;;;13.48;4.53;;;23.90;54.40;;;;;;6162632;23;20005;-86
2022/05/14 19:21:47;;;;;;;13.18;4.15;;;23.90;54.50;;;;;;6138229;23;20009;-86
2022/05/14 19:24:16;;;;;;;13.32;5.15;;;23.90;54.60;;;;;;6162117;23;20347;-86
2022/05/14 19:26:45;;;;;;;13.15;4.13;;;23.80;54.70;;;;;;6162259;23;20001;-86
2022/05/14 19:29:14;;;;;;;16.92;5.57;;;23.80;54.90;;;;;;6161852;23;20012;-86
2022/05/14 19:31:40;;;;;;;17.88;4.47;;;23.70;54.90;;;;;;6161844;23;20012;-86
2022/05/14 19:34:07;;;;;;;20.75;5.53;;;23.70;55.10;;;;;;6162254;23;20425;-86
2022/05/14 19:41:03;;;;;;;60.70;16.63;;;23.60;57.40;;;;;;5992778;23;20016;-85
2022/05/14 19:46:51;;;;;;;16.95;5.25;;;23.40;70.40;;;;;;5034525;27;2047079;-84
2022/05/14 19:49:22;;;;;;;12.65;4.38;;;23.30;72.70;;;;;;5071325;28;20028;-85
2022/05/14 19:51:57;;;;;;;13.93;5.03;;;23.20;74.00;;;;;;5072272;28;20024;-85
2022/05/14 19:54:26;;;;;;;15.75;4.60;;;23.10;75.20;;;;;;5041132;28;20028;-85
2022/05/14 19:56:52;;;;;;;14.70;4.93;;;23.00;75.80;;;;;;5073260;28;20056;-84
2022/05/14 19:59:25;;;;;;;15.73;4.78;;;22.90;76.40;;;;;;5056464;28;20067;-85
2022/05/14 20:01:52;;;;;;;12.60;4.13;;;22.80;76.90;;;;;;5091276;28;20040;-84
2022/05/14 20:04:21;;;;;;;12.32;4.82;;;22.70;77.40;;;;;;5075410;28;20044;-86
2022/05/14 20:06:50;;;;;;;14.07;4.47;;;22.60;77.90;;;;;;5075777;28;20017;-85
2022/05/14 20:09:16;;;;;;;15.40;4.80;;;22.60;78.20;;;;;;5059430;28;20027;-86
2022/05/14 20:11:44;;;;;;;13.80;4.90;;;22.50;78.80;;;;;;5059021;28;20044;-86
2022/05/14 20:14:10;;;;;;;15.88;4.90;;;22.40;79.30;;;;;;5059166;28;20017;-86
2022/05/14 20:22:05;;;;;;;12.88;4.75;;;22.10;80.30;;;;;;5063719;28;20389;-86
2022/05/14 20:24:31;;;;;;;14.95;4.35;;;22.10;81.10;;;;;;5057590;28;20024;-85
2022/05/14 20:26:56;;;;;;;14.30;4.72;;;22.00;81.70;;;;;;5041098;28;20095;-85
2022/05/14 20:29:22;;;;;;;16.20;5.07;;;21.90;82.20;;;;;;5073625;28;20024;-84
2022/05/14 20:31:51;;;;;;;16.10;5.07;;;21.90;82.70;;;;;;5094237;28;20024;-85
2022/05/14 20:34:17;;;;;;;14.70;4.38;;;21.80;83.30;;;;;;5058049;28;20062;-85
2022/05/14 20:36:43;;;;;;;14.48;4.60;;;21.80;83.80;;;;;;5073593;28;20405;-85
2022/05/14 20:39:09;;;;;;;12.02;4.00;;;21.70;84.00;;;;;;5042416;28;20028;-85
2022/05/14 20:41:34;;;;;;;14.30;4.75;;;21.70;84.00;;;;;;5060880;28;20066;-85
2022/05/14 20:44:03;;;;;;;16.55;4.38;;;21.60;84.20;;;;;;5061364;28;20020;-85
2022/05/14 20:46:31;;;;;;;14.77;4.45;;;21.50;84.40;;;;;;5045676;28;20132;-87
2022/05/14 20:48:57;;;;;;;15.00;4.50;;;21.50;84.60;;;;;;5062120;28;20017;-86
2022/05/14 20:51:23;;;;;;;10.70;3.97;;;21.40;85.10;;;;;;5061198;28;20066;-86
2022/05/14 20:53:49;;;;;;;15.18;5.25;;;21.40;85.70;;;;;;5060810;28;20024;-86
2022/05/14 20:56:22;;;;;;;14.50;4.60;;;21.30;85.80;;;;;;5056980;28;20028;-86
2022/05/14 20:58:48;;;;;;;14.27;4.82;;;21.30;86.40;;;;;;5049210;28;20119;-87
2022/05/14 21:01:14;;;;;;;16.48;4.43;;;21.20;86.40;;;;;;5066069;28;20067;-87
2022/05/14 21:03:40;;;;;;;13.85;4.50;;;21.20;86.40;;;;;;5050843;28;20089;-86
2022/05/14 21:06:06;;;;;;;18.30;4.90;;;21.10;86.70;;;;;;5034293;28;20021;-87
2022/05/14 21:08:32;;;;;;;15.15;4.90;;;21.10;87.10;;;;;;5070550;28;20423;-87
2022/05/14 21:10:58;;;;;;;12.88;4.65;;;21.10;87.40;;;;;;5054079;28;20036;-87
2022/05/14 21:13:26;;;;;;;14.10;4.22;;;21.00;87.90;;;;;;5054923;28;20028;-86
2022/05/14 21:15:52;;;;;;;14.40;5.40;;;20.90;88.10;;;;;;5072670;28;20025;-87
2022/05/14 21:18:18;;;;;;;18.13;4.95;;;20.90;88.50;;;;;;5034838;28;20036;-86
2022/05/14 21:20:44;;;;;;;15.88;4.75;;;20.90;88.70;;;;;;5047892;28;20025;-86
2022/05/14 21:23:10;;;;;;;13.13;4.65;;;20.80;88.60;;;;;;5066275;28;20024;-86
2022/05/14 21:25:36;;;;;;;13.65;4.65;;;20.80;88.90;;;;;;5069418;28;20097;-85
2022/05/14 21:28:01;;;;;;;14.65;4.93;;;20.70;89.20;;;;;;5071464;28;20474;-85
2022/05/14 21:30:27;;;;;;;17.23;4.47;;;20.70;89.70;;;;;;5067754;28;20031;-85
2022/05/14 21:32:54;;;;;;;12.90;3.83;;;20.70;90.10;;;;;;5068558;28;20415;-87
2022/05/14 21:38:14;;;;;;;17.55;5.25;;;20.60;90.20;;;;;;5071140;28;20437;-85
2022/05/14 21:40:40;;;;;;;13.50;4.10;;;20.50;90.30;;;;;;5053053;28;20032;-87
2022/05/14 21:43:15;;;;;;;20.75;5.38;;;20.50;90.40;;;;;;5067642;28;20025;-87
2022/05/14 21:45:50;;;;;;;16.25;4.55;;;20.40;90.50;;;;;;5063361;28;20490;-87
2022/05/14 21:48:17;;;;;;;17.08;4.65;;;20.40;90.50;;;;;;5065704;28;20040;-86
2022/05/14 21:50:47;;;;;;;13.05;4.38;;;20.40;90.50;;;;;;5065479;28;20474;-87
2022/05/14 21:53:16;;;;;;;17.02;4.40;;;20.30;90.50;;;;;;5064856;28;20033;-87
2022/05/14 21:55:47;;;;;;;12.10;3.53;;;20.30;90.60;;;;;;5063401;28;20017;-84
2022/05/14 21:58:16;;;;;;;13.10;4.05;;;20.20;90.70;;;;;;5063393;28;20028;-86
2022/05/14 22:00:57;;;;;;;16.58;4.35;;;20.20;90.80;;;;;;5062450;28;20044;-86
2022/05/14 22:03:23;;;;;;;17.90;4.55;;;20.20;90.90;;;;;;5067537;28;20036;-86
2022/05/14 22:05:53;;;;;;;15.68;4.70;;;20.10;90.90;;;;;;5064945;28;20467;-86
2022/05/14 22:08:20;;;;;;;16.42;4.63;;;20.10;91.00;;;;;;5058692;28;20021;-86
2022/05/14 22:10:48;;;;;;;13.90;4.68;;;20.00;91.10;;;;;;5058302;28;20048;-87
2022/05/14 22:13:14;;;;;;;18.45;5.15;;;20.00;91.20;;;;;;5057052;28;20035;-86
2022/05/14 22:15:43;;;;;;;15.40;5.13;;;20.00;91.30;;;;;;5022852;28;20524;-85
2022/05/14 22:18:13;;;;;;;17.05;5.22;;;19.90;91.20;;;;;;5055546;28;20104;-86
2022/05/14 22:20:40;;;;;;;12.70;4.35;;;19.90;91.30;;;;;;5055112;28;20071;-85
2022/05/14 22:23:06;;;;;;;15.77;4.75;;;19.80;91.40;;;;;;5038637;28;20025;-85
2022/05/14 22:25:38;;;;;;;15.10;4.85;;;19.80;91.60;;;;;;5054866;28;20032;-86
2022/05/14 22:28:04;;;;;;;16.42;4.63;;;19.80;91.60;;;;;;5054666;28;20028;-86
2022/05/14 22:30:29;;;;;;;14.25;4.53;;;19.70;91.70;;;;;;5022103;28;20040;-86
2022/05/14 22:32:56;;;;;;;21.52;5.28;;;19.70;91.80;;;;;;5021654;28;20091;-86
2022/05/14 22:35:24;;;;;;;18.83;5.22;;;19.70;91.80;;;;;;5055289;28;20462;-86
2022/05/14 22:37:50;;;;;;;14.07;4.50;;;19.60;91.80;;;;;;5054478;28;20025;-87
2022/05/14 22:43:10;;;;;;;17.42;4.97;;;19.60;91.80;;;;;;5055539;28;20048;-86
2022/05/14 22:45:36;;;;;;;18.77;5.72;;;19.50;91.70;;;;;;5054284;28;20056;-87
2022/05/14 22:48:03;;;;;;;18.40;5.45;;;19.40;91.60;;;;;;5038329;28;20029;-86
2022/05/14 22:50:29;;;;;;;19.38;5.13;;;19.50;91.60;;;;;;5037432;28;20032;-87
2022/05/14 22:52:56;;;;;;;20.80;5.28;;;19.40;91.70;;;;;;5037590;28;20096;-85
2022/05/14 22:55:24;;;;;;;15.13;4.65;;;19.40;91.60;;;;;;5054073;28;20031;-85
2022/05/14 22:57:50;;;;;;;16.02;4.75;;;19.30;91.40;;;;;;5053892;28;20512;-86
2022/05/14 23:00:17;;;;;;;17.02;4.63;;;19.30;91.40;;;;;;5053139;28;20020;-84
2022/05/14 23:02:44;;;;;;;19.52;5.07;;;19.20;91.40;;;;;;5053354;28;20056;-85
2022/05/14 23:05:09;;;;;;;14.85;5.22;;;19.20;91.30;;;;;;5054312;28;20108;-85
2022/05/14 23:07:35;;;;;;;14.73;4.97;;;19.20;91.40;;;;;;5020492;28;20060;-85
2022/05/14 23:10:03;;;;;;;15.10;4.53;;;19.10;91.50;;;;;;5036173;28;20539;-86
2022/05/14 23:12:29;;;;;;;14.73;4.82;;;19.10;91.50;;;;;;5053207;28;20028;-85
2022/05/14 23:14:54;;;;;;;20.55;4.90;;;19.00;91.40;;;;;;5019924;28;20089;-85
2022/05/14 23:17:20;;;;;;;19.50;5.35;;;19.00;91.40;;;;;;5036632;28;20025;-85
2022/05/14 23:19:49;;;;;;;17.45;5.13;;;19.00;91.50;;;;;;5035905;28;20028;-85
2022/05/14 23:22:15;;;;;;;15.40;4.47;;;18.90;91.50;;;;;;5036211;28;20041;-85
2022/05/14 23:24:40;;;;;;;14.52;4.50;;;18.90;91.60;;;;;;5052714;28;20028;-85
2022/05/14 23:27:06;;;;;;;20.25;5.13;;;18.90;91.70;;;;;;5052978;28;20064;-85
2022/05/14 23:29:32;;;;;;;15.80;4.80;;;18.80;91.60;;;;;;5019943;28;20108;-85
2022/05/14 23:32:00;;;;;;;20.33;5.70;;;18.80;91.60;;;;;;5052768;28;20021;-84
2022/05/14 23:34:25;;;;;;;16.50;5.20;;;18.80;91.70;;;;;;5024095;28;20124;-84
2022/05/14 23:36:51;;;;;;;17.80;4.63;;;18.70;91.80;;;;;;5025096;28;20052;-84
2022/05/14 23:39:16;;;;;;;18.85;5.40;;;18.70;91.90;;;;;;5023765;28;20024;-84
2022/05/14 23:41:42;;;;;;;16.83;5.10;;;18.70;91.90;;;;;;5040488;28;20033;-85
2022/05/14 23:44:09;;;;;;;18.65;6.10;;;18.60;92.00;;;;;;5040273;28;20482;-84
2022/05/14 23:46:35;;;;;;;15.55;4.75;;;18.60;92.00;;;;;;5025816;28;20052;-83
2022/05/14 23:49:00;;;;;;;17.80;5.05;;;18.60;91.90;;;;;;5026522;28;20025;-85
2022/05/14 23:51:29;;;;;;;23.08;6.22;;;18.60;92.00;;;;;;5059995;28;20021;-84
2022/05/14 23:53:57;;;;;;;16.13;5.10;;;18.60;92.10;;;;;;5059977;28;20088;-85
2022/05/14 23:56:23;;;;;;;27.25;6.35;;;18.50;92.30;;;;;;5057470;28;20033;-85
